Wilson Mersin — P3PA6 — position and weather

sailwx.info

Track history (hours):
 
Tides and Currents Weather Stations Pressure Air Temp Water Temp Dewpoint Dewpoint Depression Visibility Wind Speed Wind Dir Waves Ship Positions

Wilson Mersin

Last reported at 2015-Jul-06 02:03 UTC. Time now 2015-Jul-06 11:22 UTC.
Position N 63°34' E 009°22'.

Length 107 m; draft 6.6 m.

Type: Cargo ship. MMSI: 210072000.

Date/timePositionNaut miles runAvg speedWind from/ knotsBaromVisibWave heightAir tempDewpointWater temp
2015-Jul-06 02:03N 63°34' E 009°22'612.9
2015-Jul-06 01:33N 63°38' E 009°34'9 9.1
2015-Jul-06 00:33N 63°33' E 009°52'1111.1
2015-Jul-05 23:33N 63°29' E 010°15'10 9.8
2015-Jul-05 22:33N 63°34' E 010°33'1111.3
2015-Jul-05 21:33N 63°41' E 010°52'1211.3
2015-Jul-05 20:32N 63°46' E 011°16'2 0.2
2015-Jul-05 06:30N 63°45' E 011°11'1111.4
2015-Jul-05 05:33N 63°40' E 010°49'1110.8
2015-Jul-05 04:33N 63°33' E 010°31'3 2.7
2015-Jul-05 03:33N 63°31' E 010°28'0 0.0
2015-Jul-05 02:33N 63°31' E 010°28'0 0.1
2015-Jul-05 01:33N 63°31' E 010°28'0 0.0
2015-Jul-05 00:33N 63°31' E 010°28'0 0.0
2015-Jul-04 23:33N 63°31' E 010°28'0 0.0
2015-Jul-04 22:33N 63°31' E 010°28'0 0.1
2015-Jul-04 21:33N 63°31' E 010°29'0 0.1
2015-Jul-04 20:33N 63°31' E 010°29'0 0.1
2015-Jul-04 19:33N 63°31' E 010°29'0 0.0
2015-Jul-04 18:33N 63°31' E 010°29'0 0.0
2015-Jul-04 17:33N 63°31' E 010°29'0 0.0
2015-Jul-04 16:33N 63°31' E 010°29'0 0.1
2015-Jul-04 15:33N 63°31' E 010°29'0 0.0
2015-Jul-04 14:33N 63°31' E 010°29'0 0.1
2015-Jul-04 13:33N 63°31' E 010°29'0 0.0
2015-Jul-04 12:33N 63°31' E 010°29'0 0.0
2015-Jul-04 11:33N 63°31' E 010°29'0 0.0
2015-Jul-04 10:33N 63°31' E 010°29'0 0.0
2015-Jul-04 09:33N 63°31' E 010°29'0 0.0
2015-Jul-04 08:33N 63°31' E 010°29'0 0.0
2015-Jul-04 07:33N 63°31' E 010°29'0 0.0
2015-Jul-04 06:33N 63°31' E 010°29'0 0.0
2015-Jul-04 05:33N 63°31' E 010°29'0 0.1
2015-Jul-04 04:33N 63°31' E 010°29'0 0.0
2015-Jul-04 03:33N 63°31' E 010°29'0 0.0
2015-Jul-04 02:33N 63°31' E 010°29'0 0.0
2015-Jul-04 01:33N 63°31' E 010°29'0 0.0
2015-Jul-04 00:33N 63°31' E 010°29'0 0.0
2015-Jul-03 23:33N 63°31' E 010°29'0 0.0
2015-Jul-03 22:33N 63°31' E 010°29'2 1.6
2015-Jul-03 21:33N 63°31' E 010°25'1312.6
2015-Jul-03 20:34N 63°29' E 009°57'1212.2
2015-Jul-03 19:34N 63°39' E 009°42'55411.8
2015-Jul-01 20:33N 55°55' W 000°18'1312.6
2015-Jul-01 19:33N 55°43' W 000°26'1312.7
2015-Jul-01 18:32N 55°31' W 000°35'1212.6
2015-Jul-01 17:33N 55°20' W 000°43'1212.3
2015-Jul-01 16:33N 55°08' W 000°50'1211.9
2015-Jul-01 15:33N 54°57' W 000°58'1212.1
2015-Jul-01 14:33N 54°46' W 001°06'2 2.3
2015-Jul-01 13:29N 54°44' W 001°07'0 0.0
2015-Jul-01 12:32N 54°44' W 001°07'0 0.0
2015-Jul-01 11:32N 54°44' W 001°07'0 0.1
2015-Jul-01 10:32N 54°44' W 001°07'0 0.0
2015-Jul-01 09:32N 54°44' W 001°07'0 0.0
2015-Jul-01 08:32N 54°44' W 001°07'0 0.0
2015-Jul-01 07:32N 54°44' W 001°07'0 0.0
2015-Jul-01 06:32N 54°44' W 001°07'0 0.0
2015-Jul-01 05:29N 54°44' W 001°07'0 0.0
2015-Jul-01 04:32N 54°44' W 001°07'0 0.0
2015-Jul-01 03:32N 54°44' W 001°07'0 0.0
2015-Jul-01 02:32N 54°44' W 001°07'0 0.0
2015-Jul-01 01:32N 54°43' W 001°07'0 0.0
2015-Jul-01 00:23N 54°44' W 001°07'0 0.0
2015-Jun-30 23:32N 54°44' W 001°07'0 0.0
2015-Jun-30 22:32N 54°44' W 001°07'0 0.0
2015-Jun-30 20:32N 54°44' W 001°07'0 0.0
2015-Jun-30 19:33N 54°44' W 001°07'0 0.0
2015-Jun-30 18:32N 54°44' W 001°07'0 0.0
2015-Jun-30 17:32N 54°44' W 001°07'0 0.0
2015-Jun-30 16:32N 54°44' W 001°07'0 0.0
2015-Jun-30 15:32N 54°44' W 001°07'0 0.0
2015-Jun-30 14:27N 54°44' W 001°07'0 0.0
2015-Jun-30 13:29N 54°43' W 001°07'0 0.0
2015-Jun-30 12:32N 54°43' W 001°07'0 0.0
2015-Jun-30 11:32N 54°43' W 001°07'0 0.0
2015-Jun-30 10:32N 54°44' W 001°07'0 0.0
2015-Jun-30 09:23N 54°44' W 001°07'0 0.0
2015-Jun-30 08:33N 54°44' W 001°07'0 0.0
2015-Jun-30 07:33N 54°44' W 001°07'0 0.0
2015-Jun-30 06:32N 54°44' W 001°07'0 0.0
2015-Jun-30 05:32N 54°44' W 001°07'0 0.1
2015-Jun-30 04:32N 54°43' W 001°07'0 0.0
2015-Jun-30 03:20N 54°43' W 001°07'0 0.0
2015-Jun-30 01:33N 54°43' W 001°07'0 0.0
2015-Jun-30 00:29N 54°43' W 001°07'0 0.1
2015-Jun-29 23:33N 54°44' W 001°07'0 0.1
2015-Jun-29 22:33N 54°44' W 001°07'0 0.0
2015-Jun-29 21:30N 54°44' W 001°07'0 0.0
2015-Jun-29 20:32N 54°44' W 001°07'0 0.0
2015-Jun-29 19:32N 54°44' W 001°07'0 0.0
2015-Jun-29 18:33N 54°44' W 001°07'0 0.1
2015-Jun-29 17:32N 54°44' W 001°07'0 0.0
2015-Jun-29 16:33N 54°44' W 001°07'0 0.1
2015-Jun-29 15:33N 54°43' W 001°07'0 0.0
2015-Jun-29 14:30N 54°43' W 001°07'0 0.0
2015-Jun-29 13:32N 54°43' W 001°07'0 0.0
2015-Jun-29 12:29N 54°43' W 001°07'0 0.0
2015-Jun-29 11:32N 54°44' W 001°07'0 0.0
2015-Jun-29 10:32N 54°44' W 001°07'0 0.0
2015-Jun-29 09:32N 54°44' W 001°07'0 0.0
2015-Jun-29 08:32N 54°44' W 001°07'0 0.0
2015-Jun-29 07:32N 54°44' W 001°07'0 0.0
2015-Jun-29 06:29N 54°44' W 001°07'0 0.0
2015-Jun-29 05:29N 54°44' W 001°07'0 0.0
2015-Jun-29 04:32N 54°44' W 001°07'0 0.0
2015-Jun-29 03:32N 54°44' W 001°07'0 0.0
2015-Jun-29 02:32N 54°44' W 001°07'0 0.0
2015-Jun-29 01:33N 54°44' W 001°07'0 0.0
2015-Jun-29 00:05N 54°43' W 001°07'0 0.0
2015-Jun-28 23:29N 54°43' W 001°07'0 0.0
2015-Jun-28 22:32N 54°44' W 001°07'0 0.0
2015-Jun-28 21:32N 54°44' W 001°07'0 0.0
2015-Jun-28 20:32N 54°44' W 001°07'0 0.0
2015-Jun-28 19:32N 54°44' W 001°07'0 0.0
2015-Jun-28 18:32N 54°44' W 001°07'0 0.0
2015-Jun-28 17:32N 54°44' W 001°07'0 0.0
2015-Jun-28 16:32N 54°44' W 001°07'0 0.0
2015-Jun-28 15:33N 54°44' W 001°07'0 0.0
2015-Jun-28 14:32N 54°44' W 001°07'0 0.0
2015-Jun-28 13:32N 54°44' W 001°07'0 0.0
2015-Jun-28 12:29N 54°44' W 001°07'0 0.0
2015-Jun-28 11:33N 54°44' W 001°07'0 0.0
2015-Jun-28 10:32N 54°44' W 001°07'0 0.0
2015-Jun-28 09:27N 54°44' W 001°07'0 0.0
2015-Jun-28 08:33N 54°44' W 001°07'0 0.0
2015-Jun-28 07:33N 54°44' W 001°07'0 0.0
2015-Jun-28 06:32N 54°44' W 001°07'0 0.0
2015-Jun-28 05:24N 54°44' W 001°07'0 0.0
2015-Jun-28 04:32N 54°44' W 001°07'0 0.0
2015-Jun-28 03:32N 54°44' W 001°07'0 0.1
2015-Jun-28 02:29N 54°43' W 001°07'0 0.0
2015-Jun-27 23:24N 54°43' W 001°07'0 0.0
2015-Jun-27 22:20N 54°43' W 001°07'0 0.0
2015-Jun-27 21:23N 54°43' W 001°07'0 0.0
2015-Jun-27 20:32N 54°43' W 001°07'0 0.0
2015-Jun-27 19:32N 54°44' W 001°07'0 0.0
2015-Jun-27 18:32N 54°44' W 001°07'0 0.0
2015-Jun-27 17:32N 54°44' W 001°07'0 0.0
2015-Jun-27 16:32N 54°43' W 001°07'0 0.0
2015-Jun-27 15:32N 54°43' W 001°07'0 0.0
2015-Jun-27 14:33N 54°43' W 001°07'0 0.0
2015-Jun-27 13:32N 54°43' W 001°07'0 0.0
2015-Jun-27 12:29N 54°43' W 001°07'0 0.0
2015-Jun-27 11:14N 54°43' W 001°07'  
Track history (hours):
 
Tides and Currents Weather Stations Pressure Air Temp Water Temp Dewpoint Dewpoint Depression Visibility Wind Speed Wind Dir Waves Ship Positions

Wilson Mersin

Last reported at 2015-Jul-06 02:03 UTC. Time now 2015-Jul-06 11:22 UTC.
Position N 63°34' E 009°22'.

Length 107 m; draft 6.6 m.

Type: Cargo ship. MMSI: 210072000.

Date/timePositionNaut miles runAvg speedWind from/ knotsBaromVisibWave heightAir tempDewpointWater temp
2015-Jul-06 02:03N 63°34' E 009°22'612.9
2015-Jul-06 01:33N 63°38' E 009°34'9 9.1
2015-Jul-06 00:33N 63°33' E 009°52'1111.1
2015-Jul-05 23:33N 63°29' E 010°15'10 9.8
2015-Jul-05 22:33N 63°34' E 010°33'1111.3
2015-Jul-05 21:33N 63°41' E 010°52'1211.3
2015-Jul-05 20:32N 63°46' E 011°16'2 0.2
2015-Jul-05 06:30N 63°45' E 011°11'1111.4
2015-Jul-05 05:33N 63°40' E 010°49'1110.8
2015-Jul-05 04:33N 63°33' E 010°31'3 2.7
2015-Jul-05 03:33N 63°31' E 010°28'0 0.0
2015-Jul-05 02:33N 63°31' E 010°28'0 0.1
2015-Jul-05 01:33N 63°31' E 010°28'0 0.0
2015-Jul-05 00:33N 63°31' E 010°28'0 0.0
2015-Jul-04 23:33N 63°31' E 010°28'0 0.0
2015-Jul-04 22:33N 63°31' E 010°28'0 0.1
2015-Jul-04 21:33N 63°31' E 010°29'0 0.1
2015-Jul-04 20:33N 63°31' E 010°29'0 0.1
2015-Jul-04 19:33N 63°31' E 010°29'0 0.0
2015-Jul-04 18:33N 63°31' E 010°29'0 0.0
2015-Jul-04 17:33N 63°31' E 010°29'0 0.0
2015-Jul-04 16:33N 63°31' E 010°29'0 0.1
2015-Jul-04 15:33N 63°31' E 010°29'0 0.0
2015-Jul-04 14:33N 63°31' E 010°29'0 0.1
2015-Jul-04 13:33N 63°31' E 010°29'0 0.0
2015-Jul-04 12:33N 63°31' E 010°29'0 0.0
2015-Jul-04 11:33N 63°31' E 010°29'0 0.0
2015-Jul-04 10:33N 63°31' E 010°29'0 0.0
2015-Jul-04 09:33N 63°31' E 010°29'0 0.0
2015-Jul-04 08:33N 63°31' E 010°29'0 0.0
2015-Jul-04 07:33N 63°31' E 010°29'0 0.0
2015-Jul-04 06:33N 63°31' E 010°29'0 0.0
2015-Jul-04 05:33N 63°31' E 010°29'0 0.1
2015-Jul-04 04:33N 63°31' E 010°29'0 0.0
2015-Jul-04 03:33N 63°31' E 010°29'0 0.0
2015-Jul-04 02:33N 63°31' E 010°29'0 0.0
2015-Jul-04 01:33N 63°31' E 010°29'0 0.0
2015-Jul-04 00:33N 63°31' E 010°29'0 0.0
2015-Jul-03 23:33N 63°31' E 010°29'0 0.0
2015-Jul-03 22:33N 63°31' E 010°29'2 1.6
2015-Jul-03 21:33N 63°31' E 010°25'1312.6
2015-Jul-03 20:34N 63°29' E 009°57'1212.2
2015-Jul-03 19:34N 63°39' E 009°42'55411.8
2015-Jul-01 20:33N 55°55' W 000°18'1312.6
2015-Jul-01 19:33N 55°43' W 000°26'1312.7
2015-Jul-01 18:32N 55°31' W 000°35'1212.6
2015-Jul-01 17:33N 55°20' W 000°43'1212.3
2015-Jul-01 16:33N 55°08' W 000°50'1211.9
2015-Jul-01 15:33N 54°57' W 000°58'1212.1
2015-Jul-01 14:33N 54°46' W 001°06'2 2.3
2015-Jul-01 13:29N 54°44' W 001°07'0 0.0
2015-Jul-01 12:32N 54°44' W 001°07'0 0.0
2015-Jul-01 11:32N 54°44' W 001°07'0 0.1
2015-Jul-01 10:32N 54°44' W 001°07'0 0.0
2015-Jul-01 09:32N 54°44' W 001°07'0 0.0
2015-Jul-01 08:32N 54°44' W 001°07'0 0.0
2015-Jul-01 07:32N 54°44' W 001°07'0 0.0
2015-Jul-01 06:32N 54°44' W 001°07'0 0.0
2015-Jul-01 05:29N 54°44' W 001°07'0 0.0
2015-Jul-01 04:32N 54°44' W 001°07'0 0.0
2015-Jul-01 03:32N 54°44' W 001°07'0 0.0
2015-Jul-01 02:32N 54°44' W 001°07'0 0.0
2015-Jul-01 01:32N 54°43' W 001°07'0 0.0
2015-Jul-01 00:23N 54°44' W 001°07'0 0.0
2015-Jun-30 23:32N 54°44' W 001°07'0 0.0
2015-Jun-30 22:32N 54°44' W 001°07'0 0.0
2015-Jun-30 20:32N 54°44' W 001°07'0 0.0
2015-Jun-30 19:33N 54°44' W 001°07'0 0.0
2015-Jun-30 18:32N 54°44' W 001°07'0 0.0
2015-Jun-30 17:32N 54°44' W 001°07'0 0.0
2015-Jun-30 16:32N 54°44' W 001°07'0 0.0
2015-Jun-30 15:32N 54°44' W 001°07'0 0.0
2015-Jun-30 14:27N 54°44' W 001°07'0 0.0
2015-Jun-30 13:29N 54°43' W 001°07'0 0.0
2015-Jun-30 12:32N 54°43' W 001°07'0 0.0
2015-Jun-30 11:32N 54°43' W 001°07'0 0.0
2015-Jun-30 10:32N 54°44' W 001°07'0 0.0
2015-Jun-30 09:23N 54°44' W 001°07'0 0.0
2015-Jun-30 08:33N 54°44' W 001°07'0 0.0
2015-Jun-30 07:33N 54°44' W 001°07'0 0.0
2015-Jun-30 06:32N 54°44' W 001°07'0 0.0
2015-Jun-30 05:32N 54°44' W 001°07'0 0.1
2015-Jun-30 04:32N 54°43' W 001°07'0 0.0
2015-Jun-30 03:20N 54°43' W 001°07'0 0.0
2015-Jun-30 01:33N 54°43' W 001°07'0 0.0
2015-Jun-30 00:29N 54°43' W 001°07'0 0.1
2015-Jun-29 23:33N 54°44' W 001°07'0 0.1
2015-Jun-29 22:33N 54°44' W 001°07'0 0.0
2015-Jun-29 21:30N 54°44' W 001°07'0 0.0
2015-Jun-29 20:32N 54°44' W 001°07'0 0.0
2015-Jun-29 19:32N 54°44' W 001°07'0 0.0
2015-Jun-29 18:33N 54°44' W 001°07'0 0.1
2015-Jun-29 17:32N 54°44' W 001°07'0 0.0
2015-Jun-29 16:33N 54°44' W 001°07'0 0.1
2015-Jun-29 15:33N 54°43' W 001°07'0 0.0
2015-Jun-29 14:30N 54°43' W 001°07'0 0.0
2015-Jun-29 13:32N 54°43' W 001°07'0 0.0
2015-Jun-29 12:29N 54°43' W 001°07'0 0.0
2015-Jun-29 11:32N 54°44' W 001°07'0 0.0
2015-Jun-29 10:32N 54°44' W 001°07'0 0.0
2015-Jun-29 09:32N 54°44' W 001°07'0 0.0
2015-Jun-29 08:32N 54°44' W 001°07'0 0.0
2015-Jun-29 07:32N 54°44' W 001°07'0 0.0
2015-Jun-29 06:29N 54°44' W 001°07'0 0.0
2015-Jun-29 05:29N 54°44' W 001°07'0 0.0
2015-Jun-29 04:32N 54°44' W 001°07'0 0.0
2015-Jun-29 03:32N 54°44' W 001°07'0 0.0
2015-Jun-29 02:32N 54°44' W 001°07'0 0.0
2015-Jun-29 01:33N 54°44' W 001°07'0 0.0
2015-Jun-29 00:05N 54°43' W 001°07'0 0.0
2015-Jun-28 23:29N 54°43' W 001°07'0 0.0
2015-Jun-28 22:32N 54°44' W 001°07'0 0.0
2015-Jun-28 21:32N 54°44' W 001°07'0 0.0
2015-Jun-28 20:32N 54°44' W 001°07'0 0.0
2015-Jun-28 19:32N 54°44' W 001°07'0 0.0
2015-Jun-28 18:32N 54°44' W 001°07'0 0.0
2015-Jun-28 17:32N 54°44' W 001°07'0 0.0
2015-Jun-28 16:32N 54°44' W 001°07'0 0.0
2015-Jun-28 15:33N 54°44' W 001°07'0 0.0
2015-Jun-28 14:32N 54°44' W 001°07'0 0.0
2015-Jun-28 13:32N 54°44' W 001°07'0 0.0
2015-Jun-28 12:29N 54°44' W 001°07'0 0.0
2015-Jun-28 11:33N 54°44' W 001°07'0 0.0
2015-Jun-28 10:32N 54°44' W 001°07'0 0.0
2015-Jun-28 09:27N 54°44' W 001°07'0 0.0
2015-Jun-28 08:33N 54°44' W 001°07'0 0.0
2015-Jun-28 07:33N 54°44' W 001°07'0 0.0
2015-Jun-28 06:32N 54°44' W 001°07'0 0.0
2015-Jun-28 05:24N 54°44' W 001°07'0 0.0
2015-Jun-28 04:32N 54°44' W 001°07'0 0.0
2015-Jun-28 03:32N 54°44' W 001°07'0 0.1
2015-Jun-28 02:29N 54°43' W 001°07'0 0.0
2015-Jun-27 23:24N 54°43' W 001°07'0 0.0
2015-Jun-27 22:20N 54°43' W 001°07'0 0.0
2015-Jun-27 21:23N 54°43' W 001°07'0 0.0
2015-Jun-27 20:32N 54°43' W 001°07'0 0.0
2015-Jun-27 19:32N 54°44' W 001°07'0 0.0
2015-Jun-27 18:32N 54°44' W 001°07'0 0.0
2015-Jun-27 17:32N 54°44' W 001°07'0 0.0
2015-Jun-27 16:32N 54°43' W 001°07'0 0.0
2015-Jun-27 15:32N 54°43' W 001°07'0 0.0
2015-Jun-27 14:33N 54°43' W 001°07'0 0.0
2015-Jun-27 13:32N 54°43' W 001°07'0 0.0
2015-Jun-27 12:29N 54°43' W 001°07'0 0.0
2015-Jun-27 11:14N 54°43' W 001°07'  

Dump ship's entire track history